Ardsley On Hudson, NY (10503)

3:25 PM EDT on July 29, 2016 (GMT -0400)
Riverview Manor | | Change Station

Elev 295 ft 41.00 °N, 73.88 °W | Updated 1 second ago

Mostly Cloudy
Mostly Cloudy
81.7 °F
Feels Like 85 °F
N
0.9
Wind Variable Wind from WSW
Gusts 2.5 mph

Today
High -- | Low -- °F
--% Chance of Precip.
Yesterday
High -- | Low -- °F
Precip. -- in
Pressure 29.82 in
Visibility 10.0 miles
Clouds Mostly Cloudy 3200 ft
Mostly Cloudy 4200 ft
Heat Index 85 °F
Dew Point 69 °F
Humidity 66%
Rainfall 1.24 in
Snow Depth Not available.
5:48 AM 8:14 PM
Waning Crescent, 19% visible
METAR KHPN 291856Z 15009KT 10SM BKN032 BKN042 26/21 A2984 RMK AO2 SLP098 T02610211 $
Pressure 29.82 in
Visibility 10.0 miles
Clouds Mostly Cloudy 3200 ft
Mostly Cloudy 4200 ft
Heat Index 85 °F
Dew Point 69 °F
Humidity 66%
Rainfall 1.24 in
Snow Depth Not available.
5:48 AM 8:14 PM
Waning Crescent, 19% visible
METAR KHPN 291856Z 15009KT 10SM BKN032 BKN042 26/21 A2984 RMK AO2 SLP098 T02610211 $

10-Day Weather Forecast

Almanac

Astronomy

Jul. 29, 2016 Rise Set
Actual Time
Civil Twilight
Nautical Twilight
Astronomical Twilight
Moon
Length of Visible Light
Length of Day
Tomorrow will be .
, % of the Moon is Illuminated

Today's Extremes

State Highs State Lows

Community

WunderPhotos

Upload Photos

1,928,399 photos uploaded!

WunderBlog® & News

Nearby

Air Quality

  Air Quality AQ Index Pollutant
Not available.

Snow Depth

Station Depth Elevation

Earthquake Activity

City Distance Mag. Time & Date
Minimum magnitude displayed is 2.5.

Coastal Water Temperatures

Place Temperature

Stations

Nearby Weather Stations

Station Location Temp. Windchill Dew Point Humidity Wind Precip. Elev Updated Type
                   

Watches & Warnings

There are currently no watches in effect.